sensor_id;sensor_type;location;lat;lon;timestamp;P1;durP1;ratioP1;P2;durP2;ratioP2
19002;SDS011;9634;51.040;13.794;2023-02-14T00:02:36;36.53;;;17.73;;
19002;SDS011;9634;51.040;13.794;2023-02-14T00:07:38;32.70;;;17.30;;
19002;SDS011;9634;51.040;13.794;2023-02-14T00:12:42;36.73;;;18.30;;
19002;SDS011;9634;51.040;13.794;2023-02-14T00:17:44;36.63;;;18.27;;
19002;SDS011;9634;51.040;13.794;2023-02-14T00:22:47;38.63;;;18.97;;
19002;SDS011;9634;51.040;13.794;2023-02-14T00:27:50;34.00;;;17.50;;
19002;SDS011;9634;51.040;13.794;2023-02-14T00:32:53;38.77;;;18.67;;
19002;SDS011;9634;51.040;13.794;2023-02-14T00:37:55;36.43;;;18.50;;
19002;SDS011;9634;51.040;13.794;2023-02-14T00:42:59;36.67;;;18.00;;
19002;SDS011;9634;51.040;13.794;2023-02-14T00:48:02;38.03;;;18.57;;
19002;SDS011;9634;51.040;13.794;2023-02-14T00:53:04;34.80;;;17.80;;
19002;SDS011;9634;51.040;13.794;2023-02-14T00:58:08;38.03;;;19.40;;
19002;SDS011;9634;51.040;13.794;2023-02-14T01:03:10;33.00;;;16.87;;
19002;SDS011;9634;51.040;13.794;2023-02-14T01:08:13;36.87;;;18.17;;
19002;SDS011;9634;51.040;13.794;2023-02-14T01:13:16;38.03;;;18.50;;
19002;SDS011;9634;51.040;13.794;2023-02-14T01:18:19;38.10;;;18.60;;
19002;SDS011;9634;51.040;13.794;2023-02-14T01:23:22;40.07;;;19.17;;
19002;SDS011;9634;51.040;13.794;2023-02-14T01:28:25;33.07;;;16.93;;
19002;SDS011;9634;51.040;13.794;2023-02-14T01:33:28;32.47;;;16.77;;
19002;SDS011;9634;51.040;13.794;2023-02-14T01:38:30;34.83;;;17.20;;
19002;SDS011;9634;51.040;13.794;2023-02-14T01:43:48;39.53;;;18.83;;
19002;SDS011;9634;51.040;13.794;2023-02-14T01:48:51;35.97;;;18.47;;
19002;SDS011;9634;51.040;13.794;2023-02-14T01:53:57;37.07;;;18.23;;
19002;SDS011;9634;51.040;13.794;2023-02-14T01:59:02;38.43;;;17.90;;
19002;SDS011;9634;51.040;13.794;2023-02-14T02:04:08;38.00;;;17.67;;
19002;SDS011;9634;51.040;13.794;2023-02-14T02:09:14;38.10;;;17.77;;
19002;SDS011;9634;51.040;13.794;2023-02-14T02:14:21;37.67;;;19.27;;
19002;SDS011;9634;51.040;13.794;2023-02-14T02:24:57;42.67;;;18.67;;
19002;SDS011;9634;51.040;13.794;2023-02-14T02:36:12;37.37;;;17.27;;
19002;SDS011;9634;51.040;13.794;2023-02-14T02:41:37;35.57;;;17.57;;
19002;SDS011;9634;51.040;13.794;2023-02-14T02:46:51;36.67;;;18.20;;
19002;SDS011;9634;51.040;13.794;2023-02-14T02:52:02;36.37;;;18.07;;
19002;SDS011;9634;51.040;13.794;2023-02-14T02:57:28;36.93;;;18.43;;
19002;SDS011;9634;51.040;13.794;2023-02-14T03:02:37;34.63;;;17.83;;
19002;SDS011;9634;51.040;13.794;2023-02-14T03:07:57;38.87;;;18.83;;
19002;SDS011;9634;51.040;13.794;2023-02-14T03:18:46;39.83;;;18.07;;
19002;SDS011;9634;51.040;13.794;2023-02-14T03:24:04;38.80;;;18.70;;
19002;SDS011;9634;51.040;13.794;2023-02-14T03:29:14;36.87;;;17.70;;
19002;SDS011;9634;51.040;13.794;2023-02-14T03:34:22;38.03;;;17.47;;
19002;SDS011;9634;51.040;13.794;2023-02-14T03:39:32;36.40;;;17.70;;
19002;SDS011;9634;51.040;13.794;2023-02-14T03:44:43;36.43;;;17.50;;
19002;SDS011;9634;51.040;13.794;2023-02-14T03:49:49;38.80;;;17.50;;
19002;SDS011;9634;51.040;13.794;2023-02-14T03:54:57;33.87;;;17.43;;
19002;SDS011;9634;51.040;13.794;2023-02-14T04:00:03;34.67;;;17.00;;
19002;SDS011;9634;51.040;13.794;2023-02-14T04:05:12;35.97;;;17.57;;
19002;SDS011;9634;51.040;13.794;2023-02-14T04:10:19;37.47;;;18.53;;
19002;SDS011;9634;51.040;13.794;2023-02-14T04:15:22;32.80;;;16.63;;
19002;SDS011;9634;51.040;13.794;2023-02-14T04:20:24;36.67;;;17.40;;
19002;SDS011;9634;51.040;13.794;2023-02-14T04:25:28;35.87;;;17.60;;
19002;SDS011;9634;51.040;13.794;2023-02-14T04:30:30;33.30;;;16.83;;
19002;SDS011;9634;51.040;13.794;2023-02-14T04:35:33;37.17;;;17.03;;
19002;SDS011;9634;51.040;13.794;2023-02-14T04:40:37;36.97;;;16.83;;
19002;SDS011;9634;51.040;13.794;2023-02-14T04:45:39;31.00;;;15.57;;
19002;SDS011;9634;51.040;13.794;2023-02-14T04:50:41;33.07;;;16.50;;
19002;SDS011;9634;51.040;13.794;2023-02-14T04:55:45;35.23;;;16.57;;
19002;SDS011;9634;51.040;13.794;2023-02-14T05:00:49;38.23;;;17.37;;
19002;SDS011;9634;51.040;13.794;2023-02-14T05:05:51;31.57;;;15.47;;
19002;SDS011;9634;51.040;13.794;2023-02-14T05:10:55;35.97;;;17.17;;
19002;SDS011;9634;51.040;13.794;2023-02-14T05:15:57;35.97;;;16.73;;
19002;SDS011;9634;51.040;13.794;2023-02-14T05:20:59;35.53;;;16.47;;
19002;SDS011;9634;51.040;13.794;2023-02-14T05:26:03;30.63;;;15.67;;
19002;SDS011;9634;51.040;13.794;2023-02-14T05:31:06;35.67;;;16.33;;
19002;SDS011;9634;51.040;13.794;2023-02-14T05:36:08;35.50;;;17.33;;
19002;SDS011;9634;51.040;13.794;2023-02-14T05:41:12;31.90;;;15.03;;
19002;SDS011;9634;51.040;13.794;2023-02-14T05:46:14;37.03;;;17.47;;
19002;SDS011;9634;51.040;13.794;2023-02-14T05:51:17;37.57;;;16.63;;
19002;SDS011;9634;51.040;13.794;2023-02-14T05:56:20;35.60;;;17.07;;
19002;SDS011;9634;51.040;13.794;2023-02-14T06:01:23;38.97;;;17.20;;
19002;SDS011;9634;51.040;13.794;2023-02-14T06:06:25;33.77;;;16.90;;
19002;SDS011;9634;51.040;13.794;2023-02-14T06:11:28;34.07;;;16.90;;
19002;SDS011;9634;51.040;13.794;2023-02-14T06:16:31;34.60;;;15.93;;
19002;SDS011;9634;51.040;13.794;2023-02-14T06:21:33;36.70;;;16.80;;
19002;SDS011;9634;51.040;13.794;2023-02-14T06:26:37;32.87;;;15.27;;
19002;SDS011;9634;51.040;13.794;2023-02-14T06:31:39;29.43;;;14.97;;
19002;SDS011;9634;51.040;13.794;2023-02-14T06:36:41;27.80;;;14.57;;
19002;SDS011;9634;51.040;13.794;2023-02-14T06:41:45;31.47;;;15.23;;
19002;SDS011;9634;51.040;13.794;2023-02-14T06:46:47;30.47;;;15.17;;
19002;SDS011;9634;51.040;13.794;2023-02-14T06:51:49;28.57;;;15.23;;
19002;SDS011;9634;51.040;13.794;2023-02-14T06:56:53;33.10;;;15.43;;
19002;SDS011;9634;51.040;13.794;2023-02-14T07:01:55;31.17;;;15.67;;
19002;SDS011;9634;51.040;13.794;2023-02-14T07:06:57;32.77;;;16.13;;
19002;SDS011;9634;51.040;13.794;2023-02-14T07:12:02;33.67;;;16.80;;
19002;SDS011;9634;51.040;13.794;2023-02-14T07:17:04;30.83;;;16.03;;
19002;SDS011;9634;51.040;13.794;2023-02-14T07:22:06;33.73;;;17.60;;
19002;SDS011;9634;51.040;13.794;2023-02-14T07:27:10;29.20;;;13.83;;
19002;SDS011;9634;51.040;13.794;2023-02-14T07:32:12;30.70;;;15.73;;
19002;SDS011;9634;51.040;13.794;2023-02-14T07:37:14;26.53;;;13.33;;
19002;SDS011;9634;51.040;13.794;2023-02-14T07:42:18;28.67;;;15.10;;
19002;SDS011;9634;51.040;13.794;2023-02-14T07:47:20;31.30;;;15.47;;
19002;SDS011;9634;51.040;13.794;2023-02-14T07:52:24;28.43;;;13.87;;
19002;SDS011;9634;51.040;13.794;2023-02-14T07:57:27;27.00;;;14.83;;
19002;SDS011;9634;51.040;13.794;2023-02-14T08:02:30;26.13;;;14.73;;
19002;SDS011;9634;51.040;13.794;2023-02-14T08:07:32;28.87;;;14.87;;
19002;SDS011;9634;51.040;13.794;2023-02-14T08:12:35;23.47;;;12.87;;
19002;SDS011;9634;51.040;13.794;2023-02-14T08:17:55;28.00;;;14.10;;
19002;SDS011;9634;51.040;13.794;2023-02-14T08:22:57;21.67;;;12.50;;
19002;SDS011;9634;51.040;13.794;2023-02-14T08:28:01;23.33;;;11.83;;
19002;SDS011;9634;51.040;13.794;2023-02-14T08:33:04;22.87;;;12.17;;
19002;SDS011;9634;51.040;13.794;2023-02-14T08:38:07;22.00;;;10.90;;
19002;SDS011;9634;51.040;13.794;2023-02-14T08:43:10;12.70;;;7.70;;
19002;SDS011;9634;51.040;13.794;2023-02-14T08:48:12;18.03;;;9.80;;
19002;SDS011;9634;51.040;13.794;2023-02-14T08:53:15;19.40;;;11.47;;
19002;SDS011;9634;51.040;13.794;2023-02-14T08:58:18;15.53;;;7.90;;
19002;SDS011;9634;51.040;13.794;2023-02-14T09:03:21;15.90;;;8.70;;
19002;SDS011;9634;51.040;13.794;2023-02-14T09:08:23;14.20;;;8.43;;
19002;SDS011;9634;51.040;13.794;2023-02-14T09:13:27;13.50;;;8.37;;
19002;SDS011;9634;51.040;13.794;2023-02-14T09:18:29;17.30;;;10.53;;
19002;SDS011;9634;51.040;13.794;2023-02-14T09:23:32;16.77;;;9.70;;
19002;SDS011;9634;51.040;13.794;2023-02-14T09:28:36;18.73;;;9.90;;
19002;SDS011;9634;51.040;13.794;2023-02-14T09:33:39;17.40;;;9.07;;
19002;SDS011;9634;51.040;13.794;2023-02-14T09:38:58;15.73;;;9.80;;
19002;SDS011;9634;51.040;13.794;2023-02-14T09:44:02;17.50;;;10.43;;
19002;SDS011;9634;51.040;13.794;2023-02-14T09:49:08;15.77;;;8.47;;
19002;SDS011;9634;51.040;13.794;2023-02-14T09:54:17;20.80;;;10.97;;
19002;SDS011;9634;51.040;13.794;2023-02-14T09:59:25;14.00;;;8.20;;
19002;SDS011;9634;51.040;13.794;2023-02-14T10:04:35;14.97;;;8.53;;
19002;SDS011;9634;51.040;13.794;2023-02-14T10:09:55;14.27;;;8.00;;
19002;SDS011;9634;51.040;13.794;2023-02-14T10:15:06;15.43;;;8.80;;
19002;SDS011;9634;51.040;13.794;2023-02-14T10:20:17;18.53;;;9.33;;
19002;SDS011;9634;51.040;13.794;2023-02-14T10:25:25;16.50;;;9.80;;
19002;SDS011;9634;51.040;13.794;2023-02-14T10:30:35;20.13;;;11.70;;
19002;SDS011;9634;51.040;13.794;2023-02-14T10:35:40;15.97;;;9.53;;
19002;SDS011;9634;51.040;13.794;2023-02-14T10:40:53;16.80;;;9.07;;
19002;SDS011;9634;51.040;13.794;2023-02-14T10:46:08;14.40;;;9.00;;
19002;SDS011;9634;51.040;13.794;2023-02-14T10:51:20;18.60;;;10.20;;
19002;SDS011;9634;51.040;13.794;2023-02-14T10:56:31;17.63;;;9.90;;
19002;SDS011;9634;51.040;13.794;2023-02-14T11:01:38;18.07;;;10.07;;
19002;SDS011;9634;51.040;13.794;2023-02-14T11:06:41;16.83;;;9.97;;
19002;SDS011;9634;51.040;13.794;2023-02-14T11:11:46;15.53;;;9.77;;
19002;SDS011;9634;51.040;13.794;2023-02-14T11:16:53;18.83;;;11.40;;
19002;SDS011;9634;51.040;13.794;2023-02-14T11:21:56;19.13;;;11.03;;
19002;SDS011;9634;51.040;13.794;2023-02-14T11:27:00;15.70;;;9.20;;
19002;SDS011;9634;51.040;13.794;2023-02-14T11:32:07;18.73;;;8.83;;
19002;SDS011;9634;51.040;13.794;2023-02-14T11:37:23;15.60;;;8.47;;
19002;SDS011;9634;51.040;13.794;2023-02-14T11:42:37;13.63;;;8.13;;
19002;SDS011;9634;51.040;13.794;2023-02-14T11:47:43;14.40;;;7.87;;
19002;SDS011;9634;51.040;13.794;2023-02-14T11:52:47;17.97;;;10.10;;
19002;SDS011;9634;51.040;13.794;2023-02-14T11:57:51;17.80;;;9.87;;
19002;SDS011;9634;51.040;13.794;2023-02-14T12:02:56;14.30;;;8.73;;
19002;SDS011;9634;51.040;13.794;2023-02-14T12:08:02;14.60;;;8.70;;
19002;SDS011;9634;51.040;13.794;2023-02-14T12:13:18;15.37;;;8.83;;
19002;SDS011;9634;51.040;13.794;2023-02-14T12:18:33;14.93;;;7.67;;
19002;SDS011;9634;51.040;13.794;2023-02-14T12:23:55;16.97;;;8.47;;
19002;SDS011;9634;51.040;13.794;2023-02-14T12:29:08;13.97;;;8.23;;
19002;SDS011;9634;51.040;13.794;2023-02-14T12:34:17;15.63;;;8.30;;
19002;SDS011;9634;51.040;13.794;2023-02-14T12:39:21;13.47;;;7.77;;
19002;SDS011;9634;51.040;13.794;2023-02-14T12:44:31;12.10;;;7.40;;
19002;SDS011;9634;51.040;13.794;2023-02-14T12:55:35;17.87;;;8.17;;
19002;SDS011;9634;51.040;13.794;2023-02-14T13:00:51;13.40;;;8.30;;
19002;SDS011;9634;51.040;13.794;2023-02-14T13:06:03;18.43;;;9.20;;
19002;SDS011;9634;51.040;13.794;2023-02-14T13:11:19;15.23;;;9.23;;
19002;SDS011;9634;51.040;13.794;2023-02-14T13:16:29;10.67;;;7.43;;
19002;SDS011;9634;51.040;13.794;2023-02-14T13:21:37;13.63;;;8.07;;
19002;SDS011;9634;51.040;13.794;2023-02-14T13:26:43;14.23;;;8.73;;
19002;SDS011;9634;51.040;13.794;2023-02-14T13:31:49;13.97;;;8.50;;
19002;SDS011;9634;51.040;13.794;2023-02-14T13:36:54;14.20;;;8.00;;
19002;SDS011;9634;51.040;13.794;2023-02-14T13:42:00;12.53;;;7.50;;
19002;SDS011;9634;51.040;13.794;2023-02-14T13:47:02;13.00;;;7.10;;
19002;SDS011;9634;51.040;13.794;2023-02-14T13:52:05;12.93;;;8.33;;
19002;SDS011;9634;51.040;13.794;2023-02-14T13:57:24;15.40;;;9.10;;
19002;SDS011;9634;51.040;13.794;2023-02-14T14:02:30;13.50;;;8.63;;
19002;SDS011;9634;51.040;13.794;2023-02-14T14:07:41;15.63;;;9.30;;
19002;SDS011;9634;51.040;13.794;2023-02-14T14:12:45;19.83;;;11.20;;
19002;SDS011;9634;51.040;13.794;2023-02-14T14:23:33;22.50;;;12.83;;
19002;SDS011;9634;51.040;13.794;2023-02-14T14:28:39;20.30;;;12.47;;
19002;SDS011;9634;51.040;13.794;2023-02-14T14:33:52;20.83;;;12.00;;
19002;SDS011;9634;51.040;13.794;2023-02-14T14:38:59;24.50;;;14.00;;
19002;SDS011;9634;51.040;13.794;2023-02-14T14:44:02;26.33;;;14.70;;
19002;SDS011;9634;51.040;13.794;2023-02-14T14:49:07;22.80;;;13.30;;
19002;SDS011;9634;51.040;13.794;2023-02-14T14:54:12;28.77;;;14.70;;
19002;SDS011;9634;51.040;13.794;2023-02-14T14:59:25;23.47;;;13.50;;
19002;SDS011;9634;51.040;13.794;2023-02-14T15:04:31;24.30;;;13.90;;
19002;SDS011;9634;51.040;13.794;2023-02-14T15:09:34;26.70;;;14.43;;
19002;SDS011;9634;51.040;13.794;2023-02-14T15:14:38;25.23;;;15.07;;
19002;SDS011;9634;51.040;13.794;2023-02-14T15:19:44;24.97;;;14.13;;
19002;SDS011;9634;51.040;13.794;2023-02-14T15:24:50;24.53;;;14.90;;
19002;SDS011;9634;51.040;13.794;2023-02-14T15:29:59;26.27;;;14.97;;
19002;SDS011;9634;51.040;13.794;2023-02-14T15:35:03;27.10;;;15.33;;
19002;SDS011;9634;51.040;13.794;2023-02-14T15:40:07;25.77;;;14.90;;
19002;SDS011;9634;51.040;13.794;2023-02-14T15:45:18;28.47;;;15.63;;
19002;SDS011;9634;51.040;13.794;2023-02-14T15:50:23;28.27;;;17.17;;
19002;SDS011;9634;51.040;13.794;2023-02-14T15:55:27;28.83;;;16.50;;
19002;SDS011;9634;51.040;13.794;2023-02-14T16:00:32;25.83;;;15.53;;
19002;SDS011;9634;51.040;13.794;2023-02-14T16:05:36;31.30;;;17.57;;
19002;SDS011;9634;51.040;13.794;2023-02-14T16:10:38;28.70;;;16.73;;
19002;SDS011;9634;51.040;13.794;2023-02-14T16:15:54;28.53;;;16.13;;
19002;SDS011;9634;51.040;13.794;2023-02-14T16:21:08;36.43;;;18.70;;
19002;SDS011;9634;51.040;13.794;2023-02-14T16:26:11;32.50;;;17.47;;
19002;SDS011;9634;51.040;13.794;2023-02-14T16:31:15;31.37;;;15.93;;
19002;SDS011;9634;51.040;13.794;2023-02-14T16:36:18;30.47;;;16.20;;
19002;SDS011;9634;51.040;13.794;2023-02-14T16:41:23;32.37;;;17.40;;
19002;SDS011;9634;51.040;13.794;2023-02-14T16:46:31;33.17;;;17.13;;
19002;SDS011;9634;51.040;13.794;2023-02-14T16:51:36;28.80;;;15.17;;
19002;SDS011;9634;51.040;13.794;2023-02-14T16:56:42;33.13;;;16.47;;
19002;SDS011;9634;51.040;13.794;2023-02-14T17:01:48;30.17;;;16.70;;
19002;SDS011;9634;51.040;13.794;2023-02-14T17:06:51;38.10;;;17.27;;
19002;SDS011;9634;51.040;13.794;2023-02-14T17:11:56;31.37;;;16.57;;
19002;SDS011;9634;51.040;13.794;2023-02-14T17:17:05;38.27;;;18.60;;
19002;SDS011;9634;51.040;13.794;2023-02-14T17:22:07;39.70;;;19.30;;
19002;SDS011;9634;51.040;13.794;2023-02-14T17:27:11;38.17;;;19.43;;
19002;SDS011;9634;51.040;13.794;2023-02-14T17:32:14;43.33;;;20.67;;
19002;SDS011;9634;51.040;13.794;2023-02-14T17:37:17;40.67;;;19.73;;
19002;SDS011;9634;51.040;13.794;2023-02-14T17:42:19;40.67;;;19.63;;
19002;SDS011;9634;51.040;13.794;2023-02-14T17:47:23;43.83;;;19.70;;
19002;SDS011;9634;51.040;13.794;2023-02-14T17:52:25;39.47;;;18.97;;
19002;SDS011;9634;51.040;13.794;2023-02-14T17:57:29;40.53;;;19.60;;
19002;SDS011;9634;51.040;13.794;2023-02-14T18:02:32;39.63;;;21.23;;
19002;SDS011;9634;51.040;13.794;2023-02-14T18:07:34;45.83;;;21.47;;
19002;SDS011;9634;51.040;13.794;2023-02-14T18:12:37;46.13;;;20.20;;
19002;SDS011;9634;51.040;13.794;2023-02-14T18:17:41;43.90;;;20.60;;
19002;SDS011;9634;51.040;13.794;2023-02-14T18:22:43;43.27;;;20.77;;
19002;SDS011;9634;51.040;13.794;2023-02-14T18:27:45;44.73;;;21.60;;
19002;SDS011;9634;51.040;13.794;2023-02-14T18:32:49;42.30;;;21.07;;
19002;SDS011;9634;51.040;13.794;2023-02-14T18:37:51;47.90;;;22.07;;
19002;SDS011;9634;51.040;13.794;2023-02-14T18:42:53;44.60;;;21.00;;
19002;SDS011;9634;51.040;13.794;2023-02-14T18:47:57;46.80;;;22.10;;
19002;SDS011;9634;51.040;13.794;2023-02-14T18:52:59;51.07;;;22.90;;
19002;SDS011;9634;51.040;13.794;2023-02-14T18:58:02;48.70;;;22.77;;
19002;SDS011;9634;51.040;13.794;2023-02-14T19:03:06;52.57;;;23.10;;
19002;SDS011;9634;51.040;13.794;2023-02-14T19:08:08;45.67;;;21.23;;
19002;SDS011;9634;51.040;13.794;2023-02-14T19:13:10;51.83;;;23.83;;
19002;SDS011;9634;51.040;13.794;2023-02-14T19:18:14;48.33;;;22.13;;
19002;SDS011;9634;51.040;13.794;2023-02-14T19:23:16;52.73;;;23.00;;
19002;SDS011;9634;51.040;13.794;2023-02-14T19:28:20;50.13;;;24.33;;
19002;SDS011;9634;51.040;13.794;2023-02-14T19:33:23;52.93;;;22.90;;
19002;SDS011;9634;51.040;13.794;2023-02-14T19:38:25;56.33;;;25.13;;
19002;SDS011;9634;51.040;13.794;2023-02-14T19:43:28;52.87;;;24.30;;
19002;SDS011;9634;51.040;13.794;2023-02-14T19:48:32;60.73;;;25.43;;
19002;SDS011;9634;51.040;13.794;2023-02-14T19:53:34;51.50;;;22.90;;
19002;SDS011;9634;51.040;13.794;2023-02-14T19:58:36;58.07;;;25.03;;
19002;SDS011;9634;51.040;13.794;2023-02-14T20:03:41;61.57;;;26.53;;
19002;SDS011;9634;51.040;13.794;2023-02-14T20:08:43;66.20;;;28.23;;
19002;SDS011;9634;51.040;13.794;2023-02-14T20:13:46;70.63;;;27.03;;
19002;SDS011;9634;51.040;13.794;2023-02-14T20:18:49;65.73;;;26.07;;
19002;SDS011;9634;51.040;13.794;2023-02-14T20:23:52;64.90;;;26.43;;
19002;SDS011;9634;51.040;13.794;2023-02-14T20:28:56;70.37;;;28.57;;
19002;SDS011;9634;51.040;13.794;2023-02-14T20:34:00;62.13;;;27.70;;
19002;SDS011;9634;51.040;13.794;2023-02-14T20:39:03;77.97;;;29.43;;
19002;SDS011;9634;51.040;13.794;2023-02-14T20:44:07;69.50;;;27.77;;
19002;SDS011;9634;51.040;13.794;2023-02-14T20:49:12;78.00;;;30.80;;
19002;SDS011;9634;51.040;13.794;2023-02-14T20:54:15;68.30;;;28.47;;
19002;SDS011;9634;51.040;13.794;2023-02-14T20:59:17;73.03;;;30.00;;
19002;SDS011;9634;51.040;13.794;2023-02-14T21:04:25;72.57;;;28.53;;
19002;SDS011;9634;51.040;13.794;2023-02-14T21:09:28;72.30;;;29.20;;
19002;SDS011;9634;51.040;13.794;2023-02-14T21:14:32;72.10;;;28.87;;
19002;SDS011;9634;51.040;13.794;2023-02-14T21:19:36;72.90;;;29.27;;
19002;SDS011;9634;51.040;13.794;2023-02-14T21:24:38;73.43;;;29.03;;
19002;SDS011;9634;51.040;13.794;2023-02-14T21:29:41;69.40;;;28.43;;
19002;SDS011;9634;51.040;13.794;2023-02-14T21:34:45;76.53;;;30.13;;
19002;SDS011;9634;51.040;13.794;2023-02-14T21:39:47;76.73;;;28.70;;
19002;SDS011;9634;51.040;13.794;2023-02-14T21:44:50;81.17;;;30.13;;
19002;SDS011;9634;51.040;13.794;2023-02-14T21:50:11;79.13;;;27.80;;
19002;SDS011;9634;51.040;13.794;2023-02-14T21:55:32;78.07;;;29.97;;
19002;SDS011;9634;51.040;13.794;2023-02-14T22:00:34;72.73;;;27.40;;
19002;SDS011;9634;51.040;13.794;2023-02-14T22:05:38;76.87;;;28.20;;
19002;SDS011;9634;51.040;13.794;2023-02-14T22:10:40;74.80;;;27.73;;
19002;SDS011;9634;51.040;13.794;2023-02-14T22:15:43;73.60;;;27.43;;
19002;SDS011;9634;51.040;13.794;2023-02-14T22:20:47;73.53;;;27.87;;
19002;SDS011;9634;51.040;13.794;2023-02-14T22:25:51;68.60;;;26.43;;
19002;SDS011;9634;51.040;13.794;2023-02-14T22:30:54;71.77;;;26.40;;
19002;SDS011;9634;51.040;13.794;2023-02-14T22:36:01;69.03;;;26.27;;
19002;SDS011;9634;51.040;13.794;2023-02-14T22:41:04;62.27;;;25.30;;
19002;SDS011;9634;51.040;13.794;2023-02-14T22:46:08;72.57;;;26.17;;
19002;SDS011;9634;51.040;13.794;2023-02-14T22:51:15;64.50;;;24.73;;
19002;SDS011;9634;51.040;13.794;2023-02-14T22:56:20;65.93;;;25.27;;
19002;SDS011;9634;51.040;13.794;2023-02-14T23:01:24;62.43;;;24.70;;
19002;SDS011;9634;51.040;13.794;2023-02-14T23:06:28;65.47;;;24.80;;
19002;SDS011;9634;51.040;13.794;2023-02-14T23:11:32;62.47;;;24.13;;
19002;SDS011;9634;51.040;13.794;2023-02-14T23:16:36;60.57;;;23.33;;
19002;SDS011;9634;51.040;13.794;2023-02-14T23:22:09;63.53;;;24.63;;
19002;SDS011;9634;51.040;13.794;2023-02-14T23:27:13;60.47;;;22.50;;
19002;SDS011;9634;51.040;13.794;2023-02-14T23:32:16;57.73;;;21.17;;
19002;SDS011;9634;51.040;13.794;2023-02-14T23:37:20;59.57;;;23.40;;
19002;SDS011;9634;51.040;13.794;2023-02-14T23:42:23;58.43;;;21.40;;
19002;SDS011;9634;51.040;13.794;2023-02-14T23:47:25;61.10;;;23.33;;
19002;SDS011;9634;51.040;13.794;2023-02-14T23:52:29;60.03;;;22.60;;
19002;SDS011;9634;51.040;13.794;2023-02-14T23:57:31;57.73;;;21.80;;
